sensor_id;sensor_type;location;lat;lon;timestamp;pressure;altitude;pressure_sealevel;temperature;humidity
7586;BME280;12459;42.646;23.292;2023-02-14T00:06:11;94994.84;;;6.78;91.33
7586;BME280;12459;42.646;23.292;2023-02-14T00:21:13;94994.59;;;6.83;91.24
7586;BME280;12459;42.646;23.292;2023-02-14T00:36:15;94992.69;;;6.84;92.24
7586;BME280;12459;42.646;23.292;2023-02-14T00:51:18;94998.78;;;6.84;92.11
7586;BME280;12459;42.646;23.292;2023-02-14T01:06:20;94977.81;;;6.83;91.90
7586;BME280;12459;42.646;23.292;2023-02-14T01:21:22;94971.03;;;6.85;91.99
7586;BME280;12459;42.646;23.292;2023-02-14T01:36:32;94949.72;;;6.85;91.68
7586;BME280;12459;42.646;23.292;2023-02-14T01:51:34;94921.09;;;6.82;91.83
7586;BME280;12459;42.646;23.292;2023-02-14T02:06:39;94926.50;;;6.86;91.82
7586;BME280;12459;42.646;23.292;2023-02-14T02:52:41;94883.81;;;6.82;91.89
7586;BME280;12459;42.646;23.292;2023-02-14T03:07:59;94875.91;;;6.86;91.94
7586;BME280;12459;42.646;23.292;2023-02-14T03:53:10;94854.09;;;6.80;92.02
7586;BME280;12459;42.646;23.292;2023-02-14T04:08:15;94816.38;;;6.78;92.26
7586;BME280;12459;42.646;23.292;2023-02-14T04:23:20;94821.69;;;6.78;93.09
7586;BME280;12459;42.646;23.292;2023-02-14T04:38:22;94819.38;;;6.77;93.18
7586;BME280;12459;42.646;23.292;2023-02-14T04:53:23;94801.34;;;6.70;92.65
7586;BME280;12459;42.646;23.292;2023-02-14T05:08:25;94801.50;;;6.77;90.64
7586;BME280;12459;42.646;23.292;2023-02-14T05:23:26;94799.44;;;6.70;91.99
7586;BME280;12459;42.646;23.292;2023-02-14T05:38:28;94787.75;;;6.75;91.98
7586;BME280;12459;42.646;23.292;2023-02-14T05:53:30;94791.19;;;6.76;93.47
7586;BME280;12459;42.646;23.292;2023-02-14T06:08:32;94788.63;;;6.98;93.37
7586;BME280;12459;42.646;23.292;2023-02-14T06:23:33;94795.50;;;7.19;93.83
7586;BME280;12459;42.646;23.292;2023-02-14T06:38:35;94799.84;;;7.27;99.40
7586;BME280;12459;42.646;23.292;2023-02-14T06:53:37;94780.38;;;7.42;100.00
7586;BME280;12459;42.646;23.292;2023-02-14T07:08:38;94782.91;;;7.35;100.00
7586;BME280;12459;42.646;23.292;2023-02-14T07:23:40;94788.22;;;7.35;97.35
7586;BME280;12459;42.646;23.292;2023-02-14T07:38:41;94794.53;;;7.27;95.89
7586;BME280;12459;42.646;23.292;2023-02-14T07:53:43;94794.44;;;7.23;95.64
7586;BME280;12459;42.646;23.292;2023-02-14T08:08:45;94818.09;;;7.25;95.07
7586;BME280;12459;42.646;23.292;2023-02-14T08:23:46;94822.16;;;7.19;96.15
7586;BME280;12459;42.646;23.292;2023-02-14T08:38:48;94810.22;;;7.13;96.08
7586;BME280;12459;42.646;23.292;2023-02-14T08:53:50;94827.69;;;7.10;96.01
7586;BME280;12459;42.646;23.292;2023-02-14T09:08:52;94823.50;;;7.09;98.51
7586;BME280;12459;42.646;23.292;2023-02-14T09:23:55;94808.69;;;7.12;100.00
7586;BME280;12459;42.646;23.292;2023-02-14T09:38:59;94802.59;;;7.11;100.00
7586;BME280;12459;42.646;23.292;2023-02-14T09:54:02;94791.94;;;7.11;99.93
7586;BME280;12459;42.646;23.292;2023-02-14T10:09:24;94787.38;;;7.12;99.38
7586;BME280;12459;42.646;23.292;2023-02-14T10:24:42;94779.78;;;7.14;98.79
7586;BME280;12459;42.646;23.292;2023-02-14T10:54:57;94773.06;;;7.20;98.04
7586;BME280;12459;42.646;23.292;2023-02-14T11:10:00;94752.50;;;7.20;97.65
7586;BME280;12459;42.646;23.292;2023-02-14T11:25:03;94750.53;;;7.17;97.71
7586;BME280;12459;42.646;23.292;2023-02-14T11:40:05;94732.66;;;7.18;97.58
7586;BME280;12459;42.646;23.292;2023-02-14T11:55:19;94713.56;;;7.16;97.66
7586;BME280;12459;42.646;23.292;2023-02-14T12:10:23;94694.22;;;7.19;97.04
7586;BME280;12459;42.646;23.292;2023-02-14T12:25:26;94690.84;;;7.22;96.71
7586;BME280;12459;42.646;23.292;2023-02-14T12:56:00;94684.38;;;7.23;100.00
7586;BME280;12459;42.646;23.292;2023-02-14T13:26:18;94669.88;;;7.20;100.00
7586;BME280;12459;42.646;23.292;2023-02-14T13:41:20;94663.06;;;7.23;99.10
7586;BME280;12459;42.646;23.292;2023-02-14T14:27:34;94680.53;;;7.20;97.45
7586;BME280;12459;42.646;23.292;2023-02-14T14:42:40;94638.19;;;7.15;97.47
7586;BME280;12459;42.646;23.292;2023-02-14T14:57:46;94646.53;;;7.14;97.58
7586;BME280;12459;42.646;23.292;2023-02-14T15:12:49;94653.75;;;7.13;97.21
7586;BME280;12459;42.646;23.292;2023-02-14T15:28:12;94672.00;;;7.11;97.27
7586;BME280;12459;42.646;23.292;2023-02-14T18:59:47;94731.53;;;6.99;96.26
7586;BME280;12459;42.646;23.292;2023-02-14T19:14:56;94733.09;;;7.00;96.06
7586;BME280;12459;42.646;23.292;2023-02-14T20:02:38;94751.59;;;7.13;100.00
7586;BME280;12459;42.646;23.292;2023-02-14T20:17:45;94760.78;;;7.15;100.00
7586;BME280;12459;42.646;23.292;2023-02-14T20:32:49;94743.19;;;7.11;100.00
